sensor_id;sensor_type;location;lat;lon;timestamp;pressure;altitude;pressure_sealevel;temperature;humidity
56807;BME280;42687;42.524;12.052;2023-04-22T00:02:07;96464.91;;;10.19;84.31
56807;BME280;42687;42.524;12.052;2023-04-22T00:04:33;96463.97;;;10.21;83.36
56807;BME280;42687;42.524;12.052;2023-04-22T00:06:59;96463.03;;;10.22;83.86
56807;BME280;42687;42.524;12.052;2023-04-22T00:09:25;96468.31;;;10.22;83.81
56807;BME280;42687;42.524;12.052;2023-04-22T00:11:51;96457.03;;;10.19;83.93
56807;BME280;42687;42.524;12.052;2023-04-22T00:14:17;96458.81;;;10.19;84.44
56807;BME280;42687;42.524;12.052;2023-04-22T00:16:43;96463.41;;;10.15;84.17
56807;BME280;42687;42.524;12.052;2023-04-22T00:19:09;96462.94;;;10.09;84.15
56807;BME280;42687;42.524;12.052;2023-04-22T00:21:34;96462.94;;;10.09;83.38
56807;BME280;42687;42.524;12.052;2023-04-22T00:24:00;96464.63;;;10.10;83.39
56807;BME280;42687;42.524;12.052;2023-04-22T00:26:27;96460.31;;;10.09;83.12
56807;BME280;42687;42.524;12.052;2023-04-22T00:28:53;96468.28;;;10.07;82.78
56807;BME280;42687;42.524;12.052;2023-04-22T00:31:18;96412.53;;;9.73;82.00
56807;BME280;42687;42.524;12.052;2023-04-22T00:33:44;96456.38;;;10.01;81.84
56807;BME280;42687;42.524;12.052;2023-04-22T00:36:10;96462.38;;;10.04;81.80
56807;BME280;42687;42.524;12.052;2023-04-22T00:38:36;96464.91;;;10.05;81.07
56807;BME280;42687;42.524;12.052;2023-04-22T00:41:01;96463.50;;;9.99;80.51
56807;BME280;42687;42.524;12.052;2023-04-22T00:43:27;96457.50;;;9.97;81.53
56807;BME280;42687;42.524;12.052;2023-04-22T00:45:53;96473.19;;;9.99;81.85
56807;BME280;42687;42.524;12.052;2023-04-22T00:48:21;96460.97;;;9.98;80.50
56807;BME280;42687;42.524;12.052;2023-04-22T00:50:48;96465.88;;;10.04;81.24
56807;BME280;42687;42.524;12.052;2023-04-22T00:53:14;96470.34;;;10.02;80.93
56807;BME280;42687;42.524;12.052;2023-04-22T00:55:40;96468.09;;;9.96;79.69
56807;BME280;42687;42.524;12.052;2023-04-22T00:58:06;96453.84;;;9.85;79.85
56807;BME280;42687;42.524;12.052;2023-04-22T01:00:33;96465.00;;;9.89;80.25
56807;BME280;42687;42.524;12.052;2023-04-22T01:02:59;96475.34;;;9.92;81.40
56807;BME280;42687;42.524;12.052;2023-04-22T01:05:26;96467.03;;;9.84;81.11
56807;BME280;42687;42.524;12.052;2023-04-22T01:07:53;96476.47;;;9.88;81.12
56807;BME280;42687;42.524;12.052;2023-04-22T01:10:19;96473.72;;;9.90;80.34
56807;BME280;42687;42.524;12.052;2023-04-22T01:12:45;96477.09;;;9.92;80.43
56807;BME280;42687;42.524;12.052;2023-04-22T01:15:10;96463.59;;;9.83;80.17
56807;BME280;42687;42.524;12.052;2023-04-22T01:17:36;96463.09;;;9.77;80.08
56807;BME280;42687;42.524;12.052;2023-04-22T01:20:02;96457.28;;;9.72;81.17
56807;BME280;42687;42.524;12.052;2023-04-22T01:22:32;96458.22;;;9.71;81.65
56807;BME280;42687;42.524;12.052;2023-04-22T01:25:01;96453.16;;;9.67;81.04
56807;BME280;42687;42.524;12.052;2023-04-22T01:27:27;96460.19;;;9.67;81.41
56807;BME280;42687;42.524;12.052;2023-04-22T01:29:53;96460.47;;;9.62;81.84
56807;BME280;42687;42.524;12.052;2023-04-22T01:32:20;96466.72;;;9.60;82.64
56807;BME280;42687;42.524;12.052;2023-04-22T01:34:45;96465.56;;;9.49;82.41
56807;BME280;42687;42.524;12.052;2023-04-22T01:37:11;96465.03;;;9.44;82.68
56807;BME280;42687;42.524;12.052;2023-04-22T01:39:37;96466.00;;;9.27;82.70
56807;BME280;42687;42.524;12.052;2023-04-22T01:42:03;96463.50;;;9.10;83.61
56807;BME280;42687;42.524;12.052;2023-04-22T01:44:29;96468.84;;;8.92;84.70
56807;BME280;42687;42.524;12.052;2023-04-22T01:46:55;96460.84;;;8.79;85.55
56807;BME280;42687;42.524;12.052;2023-04-22T01:49:21;96468.00;;;8.76;86.32
56807;BME280;42687;42.524;12.052;2023-04-22T01:51:46;96470.72;;;8.74;86.53
56807;BME280;42687;42.524;12.052;2023-04-22T01:54:12;96470.81;;;8.73;86.39
56807;BME280;42687;42.524;12.052;2023-04-22T01:56:38;96473.59;;;8.70;86.93
56807;BME280;42687;42.524;12.052;2023-04-22T01:59:06;96470.72;;;8.58;87.64
56807;BME280;42687;42.524;12.052;2023-04-22T02:01:32;96476.81;;;8.59;87.72
56807;BME280;42687;42.524;12.052;2023-04-22T02:03:57;96410.06;;;8.16;88.10
56807;BME280;42687;42.524;12.052;2023-04-22T02:06:23;96474.59;;;8.51;88.88
56807;BME280;42687;42.524;12.052;2023-04-22T02:08:49;96479.94;;;8.49;88.93
56807;BME280;42687;42.524;12.052;2023-04-22T02:11:15;96469.69;;;8.45;89.26
56807;BME280;42687;42.524;12.052;2023-04-22T02:13:41;96467.78;;;8.31;89.87
56807;BME280;42687;42.524;12.052;2023-04-22T02:16:07;96418.47;;;7.90;90.24
56807;BME280;42687;42.524;12.052;2023-04-22T02:18:33;96483.56;;;8.13;89.89
56807;BME280;42687;42.524;12.052;2023-04-22T02:20:58;96478.19;;;7.99;90.22
56807;BME280;42687;42.524;12.052;2023-04-22T02:23:24;96477.38;;;7.81;90.85
56807;BME280;42687;42.524;12.052;2023-04-22T02:25:53;96475.41;;;7.68;91.28
56807;BME280;42687;42.524;12.052;2023-04-22T02:28:20;96485.50;;;7.59;92.68
56807;BME280;42687;42.524;12.052;2023-04-22T02:30:46;96472.19;;;7.46;92.58
56807;BME280;42687;42.524;12.052;2023-04-22T02:33:12;96486.19;;;7.45;93.25
56807;BME280;42687;42.524;12.052;2023-04-22T02:35:38;96485.88;;;7.33;93.98
56807;BME280;42687;42.524;12.052;2023-04-22T02:38:04;96478.16;;;7.30;93.61
56807;BME280;42687;42.524;12.052;2023-04-22T02:40:30;96479.94;;;7.30;94.03
56807;BME280;42687;42.524;12.052;2023-04-22T02:42:55;96432.16;;;6.91;94.51
56807;BME280;42687;42.524;12.052;2023-04-22T02:45:21;96482.09;;;7.22;95.27
56807;BME280;42687;42.524;12.052;2023-04-22T02:47:47;96481.47;;;7.16;95.75
56807;BME280;42687;42.524;12.052;2023-04-22T02:50:13;96485.16;;;7.12;96.58
56807;BME280;42687;42.524;12.052;2023-04-22T02:52:38;96484.22;;;7.13;96.40
56807;BME280;42687;42.524;12.052;2023-04-22T02:55:04;96487.69;;;7.14;96.37
56807;BME280;42687;42.524;12.052;2023-04-22T02:57:30;96475.28;;;7.00;96.67
56807;BME280;42687;42.524;12.052;2023-04-22T02:59:56;96484.44;;;6.91;95.32
56807;BME280;42687;42.524;12.052;2023-04-22T03:02:22;96482.88;;;6.87;96.53
56807;BME280;42687;42.524;12.052;2023-04-22T03:04:48;96475.78;;;6.72;96.70
56807;BME280;42687;42.524;12.052;2023-04-22T03:07:14;96481.91;;;6.71;98.31
56807;BME280;42687;42.524;12.052;2023-04-22T03:09:39;96483.13;;;6.63;98.73
56807;BME280;42687;42.524;12.052;2023-04-22T03:12:05;96480.78;;;6.57;99.37
56807;BME280;42687;42.524;12.052;2023-04-22T03:14:31;96473.47;;;6.46;100.00
56807;BME280;42687;42.524;12.052;2023-04-22T03:16:57;96435.41;;;6.22;99.68
56807;BME280;42687;42.524;12.052;2023-04-22T03:19:22;96465.00;;;6.41;98.73
56807;BME280;42687;42.524;12.052;2023-04-22T03:21:48;96477.28;;;6.58;98.25
56807;BME280;42687;42.524;12.052;2023-04-22T03:24:14;96483.47;;;6.75;97.65
56807;BME280;42687;42.524;12.052;2023-04-22T03:26:40;96484.63;;;6.87;97.68
56807;BME280;42687;42.524;12.052;2023-04-22T03:29:05;96485.81;;;6.98;97.42
56807;BME280;42687;42.524;12.052;2023-04-22T03:31:31;96491.22;;;7.13;96.62
56807;BME280;42687;42.524;12.052;2023-04-22T03:33:57;96486.47;;;7.21;96.12
56807;BME280;42687;42.524;12.052;2023-04-22T03:36:23;96473.94;;;7.28;95.35
56807;BME280;42687;42.524;12.052;2023-04-22T03:38:48;96485.34;;;7.44;94.37
56807;BME280;42687;42.524;12.052;2023-04-22T03:41:14;96478.88;;;7.51;93.56
56807;BME280;42687;42.524;12.052;2023-04-22T03:43:40;96473.88;;;7.64;92.54
56807;BME280;42687;42.524;12.052;2023-04-22T03:46:06;96478.38;;;7.78;91.67
56807;BME280;42687;42.524;12.052;2023-04-22T03:48:32;96475.16;;;7.91;90.81
56807;BME280;42687;42.524;12.052;2023-04-22T03:51:00;96480.50;;;8.05;89.88
56807;BME280;42687;42.524;12.052;2023-04-22T03:53:27;96469.94;;;8.07;88.75
56807;BME280;42687;42.524;12.052;2023-04-22T03:55:53;96475.22;;;8.23;88.03
56807;BME280;42687;42.524;12.052;2023-04-22T03:58:19;96487.75;;;8.33;87.50
56807;BME280;42687;42.524;12.052;2023-04-22T04:00:45;96480.38;;;8.40;86.86
56807;BME280;42687;42.524;12.052;2023-04-22T04:03:11;96474.97;;;8.43;86.12
56807;BME280;42687;42.524;12.052;2023-04-22T04:05:36;96484.16;;;8.52;85.80
56807;BME280;42687;42.524;12.052;2023-04-22T04:08:02;96484.75;;;8.57;85.54
56807;BME280;42687;42.524;12.052;2023-04-22T04:10:28;96472.47;;;8.58;85.34
56807;BME280;42687;42.524;12.052;2023-04-22T04:12:54;96474.59;;;8.67;84.74
56807;BME280;42687;42.524;12.052;2023-04-22T04:15:20;96486.47;;;8.74;84.67
56807;BME280;42687;42.524;12.052;2023-04-22T04:17:46;96497.34;;;8.82;84.38
56807;BME280;42687;42.524;12.052;2023-04-22T04:20:13;96491.00;;;8.87;84.14
56807;BME280;42687;42.524;12.052;2023-04-22T04:22:40;96489.72;;;8.94;84.08
56807;BME280;42687;42.524;12.052;2023-04-22T04:25:07;96488.66;;;8.98;83.91
56807;BME280;42687;42.524;12.052;2023-04-22T04:27:33;96492.88;;;9.00;83.60
56807;BME280;42687;42.524;12.052;2023-04-22T04:29:59;96498.03;;;9.02;83.64
56807;BME280;42687;42.524;12.052;2023-04-22T04:32:25;96500.66;;;9.02;84.02
56807;BME280;42687;42.524;12.052;2023-04-22T04:34:51;96503.28;;;9.02;84.10
56807;BME280;42687;42.524;12.052;2023-04-22T04:37:17;96508.00;;;9.11;83.77
56807;BME280;42687;42.524;12.052;2023-04-22T04:39:43;96499.78;;;9.17;83.55
56807;BME280;42687;42.524;12.052;2023-04-22T04:42:09;96499.34;;;9.25;83.71
56807;BME280;42687;42.524;12.052;2023-04-22T04:44:35;96499.00;;;9.31;83.23
56807;BME280;42687;42.524;12.052;2023-04-22T04:47:01;96502.22;;;9.37;83.14
56807;BME280;42687;42.524;12.052;2023-04-22T04:49:28;96490.19;;;9.32;83.62
56807;BME280;42687;42.524;12.052;2023-04-22T04:51:56;96499.97;;;9.45;83.54
56807;BME280;42687;42.524;12.052;2023-04-22T04:54:22;96505.91;;;9.48;83.61
56807;BME280;42687;42.524;12.052;2023-04-22T04:56:48;96517.03;;;9.52;83.61
56807;BME280;42687;42.524;12.052;2023-04-22T04:59:13;96510.88;;;9.53;83.62
56807;BME280;42687;42.524;12.052;2023-04-22T05:01:40;96507.22;;;9.56;83.95
56807;BME280;42687;42.524;12.052;2023-04-22T05:04:05;96500.13;;;9.58;83.77
56807;BME280;42687;42.524;12.052;2023-04-22T05:06:31;96513.81;;;9.63;83.77
56807;BME280;42687;42.524;12.052;2023-04-22T05:08:58;96518.03;;;9.65;84.02
56807;BME280;42687;42.524;12.052;2023-04-22T05:11:24;96510.09;;;9.67;84.12
56807;BME280;42687;42.524;12.052;2023-04-22T05:13:49;96510.91;;;9.67;84.39
56807;BME280;42687;42.524;12.052;2023-04-22T05:16:15;96511.69;;;9.70;84.57
56807;BME280;42687;42.524;12.052;2023-04-22T05:18:41;96515.72;;;9.75;84.35
56807;BME280;42687;42.524;12.052;2023-04-22T05:21:07;96534.25;;;9.88;84.11
56807;BME280;42687;42.524;12.052;2023-04-22T05:23:33;96525.97;;;9.94;84.02
56807;BME280;42687;42.524;12.052;2023-04-22T05:25:58;96526.34;;;10.02;83.76
56807;BME280;42687;42.524;12.052;2023-04-22T05:28:24;96520.94;;;10.06;83.86
56807;BME280;42687;42.524;12.052;2023-04-22T05:30:50;96529.19;;;10.14;83.71
56807;BME280;42687;42.524;12.052;2023-04-22T05:33:16;96524.50;;;10.19;83.77
56807;BME280;42687;42.524;12.052;2023-04-22T05:35:41;96519.84;;;10.24;83.68
56807;BME280;42687;42.524;12.052;2023-04-22T05:38:07;96523.75;;;10.31;83.38
56807;BME280;42687;42.524;12.052;2023-04-22T05:40:33;96536.22;;;10.44;83.46
56807;BME280;42687;42.524;12.052;2023-04-22T05:42:59;96541.06;;;10.50;83.10
56807;BME280;42687;42.524;12.052;2023-04-22T05:45:24;96538.34;;;10.51;83.27
56807;BME280;42687;42.524;12.052;2023-04-22T05:47:50;96539.47;;;10.62;83.24
56807;BME280;42687;42.524;12.052;2023-04-22T05:50:16;96539.19;;;10.66;82.98
56807;BME280;42687;42.524;12.052;2023-04-22T05:52:42;96535.03;;;10.77;82.93
56807;BME280;42687;42.524;12.052;2023-04-22T05:55:07;96544.16;;;10.85;82.70
56807;BME280;42687;42.524;12.052;2023-04-22T05:57:33;96547.69;;;10.99;82.39
56807;BME280;42687;42.524;12.052;2023-04-22T05:59:59;96549.91;;;11.20;81.84
56807;BME280;42687;42.524;12.052;2023-04-22T06:02:25;96536.84;;;11.45;81.42
56807;BME280;42687;42.524;12.052;2023-04-22T06:04:51;96551.03;;;12.10;80.63
56807;BME280;42687;42.524;12.052;2023-04-22T06:07:17;96536.44;;;12.69;81.47
56807;BME280;42687;42.524;12.052;2023-04-22T06:09:42;96552.56;;;13.40;82.43
56807;BME280;42687;42.524;12.052;2023-04-22T06:12:09;96550.78;;;14.00;83.47
56807;BME280;42687;42.524;12.052;2023-04-22T06:14:35;96550.97;;;14.56;84.76
56807;BME280;42687;42.524;12.052;2023-04-22T06:17:01;96557.13;;;15.13;84.93
56807;BME280;42687;42.524;12.052;2023-04-22T06:19:26;96561.97;;;15.63;84.12
56807;BME280;42687;42.524;12.052;2023-04-22T06:21:52;96557.00;;;16.02;83.74
56807;BME280;42687;42.524;12.052;2023-04-22T06:24:18;96558.22;;;16.40;83.58
56807;BME280;42687;42.524;12.052;2023-04-22T06:26:44;96564.44;;;16.81;82.10
56807;BME280;42687;42.524;12.052;2023-04-22T06:29:09;96570.34;;;17.16;81.07
56807;BME280;42687;42.524;12.052;2023-04-22T06:31:35;96572.41;;;17.53;79.07
56807;BME280;42687;42.524;12.052;2023-04-22T06:34:01;96553.69;;;17.64;77.41
56807;BME280;42687;42.524;12.052;2023-04-22T06:36:27;96573.59;;;17.99;76.46
56807;BME280;42687;42.524;12.052;2023-04-22T06:38:53;96571.06;;;18.17;75.13
56807;BME280;42687;42.524;12.052;2023-04-22T06:41:20;96570.06;;;18.38;73.61
56807;BME280;42687;42.524;12.052;2023-04-22T06:43:47;96576.47;;;18.55;72.67
56807;BME280;42687;42.524;12.052;2023-04-22T06:46:15;96574.88;;;18.82;71.30
56807;BME280;42687;42.524;12.052;2023-04-22T06:48:41;96568.81;;;18.99;70.19
56807;BME280;42687;42.524;12.052;2023-04-22T06:51:07;96572.63;;;19.25;69.21
56807;BME280;42687;42.524;12.052;2023-04-22T06:53:33;96579.47;;;19.55;67.42
56807;BME280;42687;42.524;12.052;2023-04-22T06:55:58;96581.53;;;19.79;66.47
56807;BME280;42687;42.524;12.052;2023-04-22T06:58:24;96594.94;;;19.97;66.27
56807;BME280;42687;42.524;12.052;2023-04-22T07:00:50;96590.44;;;20.16;66.46
56807;BME280;42687;42.524;12.052;2023-04-22T07:03:15;96587.56;;;20.36;66.03
56807;BME280;42687;42.524;12.052;2023-04-22T07:05:41;96589.78;;;20.40;66.16
56807;BME280;42687;42.524;12.052;2023-04-22T07:08:07;96601.28;;;20.59;65.93
56807;BME280;42687;42.524;12.052;2023-04-22T07:10:33;96590.50;;;20.95;65.51
56807;BME280;42687;42.524;12.052;2023-04-22T07:12:58;96590.03;;;21.34;65.04
56807;BME280;42687;42.524;12.052;2023-04-22T07:15:24;96595.84;;;21.64;64.85
56807;BME280;42687;42.524;12.052;2023-04-22T07:17:50;96591.25;;;21.99;64.60
56807;BME280;42687;42.524;12.052;2023-04-22T07:20:16;96590.09;;;22.02;65.08
56807;BME280;42687;42.524;12.052;2023-04-22T07:22:41;96586.03;;;21.97;65.17
56807;BME280;42687;42.524;12.052;2023-04-22T07:25:08;96590.72;;;21.87;65.30
56807;BME280;42687;42.524;12.052;2023-04-22T07:27:34;96587.41;;;22.02;65.14
56807;BME280;42687;42.524;12.052;2023-04-22T07:30:01;96585.03;;;21.90;65.30
56807;BME280;42687;42.524;12.052;2023-04-22T07:32:27;96586.72;;;21.91;65.68
56807;BME280;42687;42.524;12.052;2023-04-22T07:34:53;96574.50;;;21.97;65.70
56807;BME280;42687;42.524;12.052;2023-04-22T07:37:20;96587.25;;;22.20;65.90
56807;BME280;42687;42.524;12.052;2023-04-22T07:39:46;96584.06;;;22.57;65.01
56807;BME280;42687;42.524;12.052;2023-04-22T07:42:12;96581.91;;;22.61;64.75
56807;BME280;42687;42.524;12.052;2023-04-22T07:44:37;96573.69;;;22.54;65.04
56807;BME280;42687;42.524;12.052;2023-04-22T07:47:03;96585.94;;;22.48;65.17
56807;BME280;42687;42.524;12.052;2023-04-22T07:49:29;96580.75;;;22.47;65.92
56807;BME280;42687;42.524;12.052;2023-04-22T07:51:55;96597.63;;;22.80;65.28
56807;BME280;42687;42.524;12.052;2023-04-22T07:54:21;96581.84;;;22.94;64.98
56807;BME280;42687;42.524;12.052;2023-04-22T07:56:47;96600.09;;;23.15;64.85
56807;BME280;42687;42.524;12.052;2023-04-22T07:59:13;96590.28;;;23.39;64.18
56807;BME280;42687;42.524;12.052;2023-04-22T08:01:38;96600.63;;;23.50;64.31
56807;BME280;42687;42.524;12.052;2023-04-22T08:04:04;96600.19;;;23.38;64.23
56807;BME280;42687;42.524;12.052;2023-04-22T08:06:30;96602.00;;;23.38;64.39
56807;BME280;42687;42.524;12.052;2023-04-22T08:08:56;96578.31;;;23.02;64.73
56807;BME280;42687;42.524;12.052;2023-04-22T08:11:22;96599.78;;;22.93;65.32
56807;BME280;42687;42.524;12.052;2023-04-22T08:13:47;96551.59;;;22.44;66.14
56807;BME280;42687;42.524;12.052;2023-04-22T08:16:14;96604.16;;;22.78;66.13
56807;BME280;42687;42.524;12.052;2023-04-22T08:18:39;96585.81;;;23.06;65.44
56807;BME280;42687;42.524;12.052;2023-04-22T08:21:05;96598.50;;;23.37;64.43
56807;BME280;42687;42.524;12.052;2023-04-22T08:23:31;96596.16;;;23.34;64.31
56807;BME280;42687;42.524;12.052;2023-04-22T08:25:57;96598.16;;;23.40;64.49
56807;BME280;42687;42.524;12.052;2023-04-22T08:28:23;96601.34;;;23.44;64.48
56807;BME280;42687;42.524;12.052;2023-04-22T08:30:49;96598.91;;;23.18;64.94
56807;BME280;42687;42.524;12.052;2023-04-22T08:33:15;96594.25;;;22.95;64.76
56807;BME280;42687;42.524;12.052;2023-04-22T08:35:41;96601.09;;;23.14;64.38
56807;BME280;42687;42.524;12.052;2023-04-22T08:38:07;96600.75;;;23.17;64.64
56807;BME280;42687;42.524;12.052;2023-04-22T08:40:33;96598.09;;;23.17;64.41
56807;BME280;42687;42.524;12.052;2023-04-22T08:42:59;96583.78;;;23.25;63.74
56807;BME280;42687;42.524;12.052;2023-04-22T08:45:25;96598.78;;;23.51;63.45
56807;BME280;42687;42.524;12.052;2023-04-22T08:47:52;96587.97;;;23.36;63.63
56807;BME280;42687;42.524;12.052;2023-04-22T08:50:19;96603.03;;;23.37;63.59
56807;BME280;42687;42.524;12.052;2023-04-22T08:52:49;96588.50;;;23.23;63.39
56807;BME280;42687;42.524;12.052;2023-04-22T08:55:15;96594.50;;;23.33;63.22
56807;BME280;42687;42.524;12.052;2023-04-22T08:57:41;96583.16;;;23.14;63.84
56807;BME280;42687;42.524;12.052;2023-04-22T09:00:08;96602.69;;;23.31;63.68
56807;BME280;42687;42.524;12.052;2023-04-22T09:02:36;96599.28;;;23.46;63.51
56807;BME280;42687;42.524;12.052;2023-04-22T09:05:04;96597.31;;;23.71;62.31
56807;BME280;42687;42.524;12.052;2023-04-22T09:07:31;96587.06;;;23.43;62.67
56807;BME280;42687;42.524;12.052;2023-04-22T09:09:57;96601.47;;;23.51;63.38
56807;BME280;42687;42.524;12.052;2023-04-22T09:12:57;96607.78;;;23.66;62.26
56807;BME280;42687;42.524;12.052;2023-04-22T09:15:23;96594.03;;;23.61;62.71
56807;BME280;42687;42.524;12.052;2023-04-22T09:17:52;96554.66;;;23.53;62.53
56807;BME280;42687;42.524;12.052;2023-04-22T09:20:25;96588.53;;;23.86;62.22
56807;BME280;42687;42.524;12.052;2023-04-22T09:22:51;96589.88;;;23.81;62.51
56807;BME280;42687;42.524;12.052;2023-04-22T09:25:22;96539.38;;;23.54;62.43
56807;BME280;42687;42.524;12.052;2023-04-22T09:27:50;96591.38;;;23.84;62.33
56807;BME280;42687;42.524;12.052;2023-04-22T09:30:17;96589.25;;;23.79;62.54
56807;BME280;42687;42.524;12.052;2023-04-22T09:32:54;96586.44;;;23.73;62.77
56807;BME280;42687;42.524;12.052;2023-04-22T09:35:32;96575.28;;;23.84;60.81
56807;BME280;42687;42.524;12.052;2023-04-22T09:38:00;96559.34;;;23.82;62.59
56807;BME280;42687;42.524;12.052;2023-04-22T09:40:26;96587.09;;;24.06;62.39
56807;BME280;42687;42.524;12.052;2023-04-22T09:42:58;96571.84;;;24.22;61.94
56807;BME280;42687;42.524;12.052;2023-04-22T09:48:10;96579.84;;;24.07;61.88
56807;BME280;42687;42.524;12.052;2023-04-22T09:50:38;96548.06;;;23.87;61.61
56807;BME280;42687;42.524;12.052;2023-04-22T09:53:07;96579.66;;;24.08;61.49
56807;BME280;42687;42.524;12.052;2023-04-22T09:55:36;96569.34;;;24.20;61.05
56807;BME280;42687;42.524;12.052;2023-04-22T09:58:08;96584.63;;;24.20;60.92
56807;BME280;42687;42.524;12.052;2023-04-22T10:00:42;96574.19;;;24.25;61.13
56807;BME280;42687;42.524;12.052;2023-04-22T10:03:08;96574.69;;;24.28;61.19
56807;BME280;42687;42.524;12.052;2023-04-22T10:05:36;96571.06;;;24.36;60.98
56807;BME280;42687;42.524;12.052;2023-04-22T10:08:06;96566.66;;;24.43;60.79
56807;BME280;42687;42.524;12.052;2023-04-22T10:10:32;96572.44;;;24.55;60.94
56807;BME280;42687;42.524;12.052;2023-04-22T10:13:00;96576.84;;;24.71;60.86
56807;BME280;42687;42.524;12.052;2023-04-22T10:15:31;96555.91;;;24.43;54.53
56807;BME280;42687;42.524;12.052;2023-04-22T10:17:57;96575.69;;;24.27;60.60
56807;BME280;42687;42.524;12.052;2023-04-22T10:20:25;96566.63;;;24.28;60.94
56807;BME280;42687;42.524;12.052;2023-04-22T10:22:53;96564.94;;;24.27;61.29
56807;BME280;42687;42.524;12.052;2023-04-22T10:25:24;96561.06;;;24.30;59.85
56807;BME280;42687;42.524;12.052;2023-04-22T10:28:09;96556.31;;;24.32;59.59
56807;BME280;42687;42.524;12.052;2023-04-22T10:30:37;96566.06;;;24.33;59.92
56807;BME280;42687;42.524;12.052;2023-04-22T10:41:15;96573.97;;;24.49;59.88
56807;BME280;42687;42.524;12.052;2023-04-22T10:43:48;96565.53;;;24.14;60.13
56807;BME280;42687;42.524;12.052;2023-04-22T10:49:05;96566.66;;;24.20;60.04
56807;BME280;42687;42.524;12.052;2023-04-22T10:51:46;96567.97;;;24.47;58.93
56807;BME280;42687;42.524;12.052;2023-04-22T10:57:18;96566.81;;;24.65;57.93
56807;BME280;42687;42.524;12.052;2023-04-22T10:59:54;96560.63;;;24.64;58.15
56807;BME280;42687;42.524;12.052;2023-04-22T11:02:23;96559.94;;;24.62;58.10
56807;BME280;42687;42.524;12.052;2023-04-22T11:04:50;96529.09;;;24.35;58.17
56807;BME280;42687;42.524;12.052;2023-04-22T11:09:52;96566.44;;;24.68;56.80
56807;BME280;42687;42.524;12.052;2023-04-22T11:17:32;96556.53;;;24.98;56.07
56807;BME280;42687;42.524;12.052;2023-04-22T11:19:59;96546.06;;;25.04;56.16
56807;BME280;42687;42.524;12.052;2023-04-22T11:22:25;96559.97;;;25.22;55.54
56807;BME280;42687;42.524;12.052;2023-04-22T11:24:59;96553.16;;;25.35;55.46
56807;BME280;42687;42.524;12.052;2023-04-22T11:27:25;96558.03;;;25.46;55.05
56807;BME280;42687;42.524;12.052;2023-04-22T11:30:14;96551.94;;;25.37;55.69
56807;BME280;42687;42.524;12.052;2023-04-22T11:32:45;96532.88;;;25.24;55.54
56807;BME280;42687;42.524;12.052;2023-04-22T11:35:33;96528.19;;;25.11;54.38
56807;BME280;42687;42.524;12.052;2023-04-22T11:38:04;96547.63;;;25.13;55.64
56807;BME280;42687;42.524;12.052;2023-04-22T11:40:32;96523.63;;;24.96;55.38
56807;BME280;42687;42.524;12.052;2023-04-22T11:43:00;96549.31;;;24.99;55.55
56807;BME280;42687;42.524;12.052;2023-04-22T11:45:28;96495.25;;;24.79;55.25
56807;BME280;42687;42.524;12.052;2023-04-22T11:47:54;96539.38;;;25.29;54.53
56807;BME280;42687;42.524;12.052;2023-04-22T11:50:29;96545.69;;;25.37;54.23
56807;BME280;42687;42.524;12.052;2023-04-22T11:53:03;96519.41;;;25.24;54.46
56807;BME280;42687;42.524;12.052;2023-04-22T11:55:30;96549.59;;;25.34;54.14
56807;BME280;42687;42.524;12.052;2023-04-22T11:58:05;96530.50;;;24.99;55.04
56807;BME280;42687;42.524;12.052;2023-04-22T12:00:52;96539.00;;;24.73;54.99
56807;BME280;42687;42.524;12.052;2023-04-22T12:03:23;96524.75;;;24.34;55.83
56807;BME280;42687;42.524;12.052;2023-04-22T12:08:20;96534.94;;;24.39;55.82
56807;BME280;42687;42.524;12.052;2023-04-22T12:10:55;96534.50;;;24.50;55.60
56807;BME280;42687;42.524;12.052;2023-04-22T12:13:23;96538.34;;;24.71;55.38
56807;BME280;42687;42.524;12.052;2023-04-22T12:15:54;96530.66;;;24.83;54.99
56807;BME280;42687;42.524;12.052;2023-04-22T12:18:36;96537.56;;;25.00;54.69
56807;BME280;42687;42.524;12.052;2023-04-22T12:23:29;96519.59;;;25.52;54.11
56807;BME280;42687;42.524;12.052;2023-04-22T12:25:54;96527.41;;;25.84;52.93
56807;BME280;42687;42.524;12.052;2023-04-22T12:28:20;96517.19;;;26.01;52.99
56807;BME280;42687;42.524;12.052;2023-04-22T12:30:46;96518.13;;;26.08;52.90
56807;BME280;42687;42.524;12.052;2023-04-22T12:33:12;96522.16;;;25.97;53.17
56807;BME280;42687;42.524;12.052;2023-04-22T12:35:38;96528.16;;;25.99;53.46
56807;BME280;42687;42.524;12.052;2023-04-22T12:38:03;96519.63;;;25.95;53.37
56807;BME280;42687;42.524;12.052;2023-04-22T12:40:29;96515.91;;;25.96;53.35
56807;BME280;42687;42.524;12.052;2023-04-22T12:42:55;96509.53;;;25.61;53.78
56807;BME280;42687;42.524;12.052;2023-04-22T12:45:20;96488.94;;;24.87;54.65
56807;BME280;42687;42.524;12.052;2023-04-22T12:47:50;96508.41;;;25.04;54.93
56807;BME280;42687;42.524;12.052;2023-04-22T12:50:19;96501.00;;;25.06;54.81
56807;BME280;42687;42.524;12.052;2023-04-22T12:52:45;96486.00;;;24.81;55.23
56807;BME280;42687;42.524;12.052;2023-04-22T12:55:11;96498.41;;;24.97;55.21
56807;BME280;42687;42.524;12.052;2023-04-22T12:57:37;96504.69;;;25.05;54.82
56807;BME280;42687;42.524;12.052;2023-04-22T13:00:04;96502.38;;;25.17;54.94
56807;BME280;42687;42.524;12.052;2023-04-22T13:02:31;96496.16;;;25.16;54.61
56807;BME280;42687;42.524;12.052;2023-04-22T13:04:57;96505.53;;;25.20;54.79
56807;BME280;42687;42.524;12.052;2023-04-22T13:07:23;96496.72;;;25.11;54.73
56807;BME280;42687;42.524;12.052;2023-04-22T13:09:49;96497.13;;;24.93;55.14
56807;BME280;42687;42.524;12.052;2023-04-22T13:12:14;96493.31;;;24.73;55.48
56807;BME280;42687;42.524;12.052;2023-04-22T13:14:40;96499.66;;;24.57;55.64
56807;BME280;42687;42.524;12.052;2023-04-22T13:17:06;96494.00;;;24.52;56.00
56807;BME280;42687;42.524;12.052;2023-04-22T13:19:32;96501.56;;;24.71;55.92
56807;BME280;42687;42.524;12.052;2023-04-22T13:21:59;96493.22;;;24.81;55.47